Terminal Aerodrome Forecast
Issued by NWS

Home | Current Version | Previous Version | Text Only | Print | Product List | Glossary On
Versions: 1 2 3 4 5 6 7 8 9 10 11 12 13 14 15 16 17 18 19 20 21 22 23 24
000
FTUS41 KOKX 041437 AAA
TAFGON
TAF AMD
KGON 041437Z 0415/0512 10005KT P6SM SCT060 BKN120
     FM041800 12007KT P6SM SCT035 OVC060
     FM050200 VRB04KT P6SM BKN060
     FM050600 VRB03KT P6SM FEW060=

USA.gov is the U.S. government's official web portal to all federal, state and local government web resources and services.